createdAt,value
2023-07-19T00:00:58.476Z,99.90
2023-07-19T00:03:28.832Z,99.90
2023-07-19T00:06:03.289Z,99.90
2023-07-19T00:08:35.468Z,99.90
2023-07-19T00:11:05.647Z,99.90
2023-07-19T00:13:35.945Z,99.90
2023-07-19T00:16:06.531Z,99.90
2023-07-19T00:18:36.491Z,99.90
2023-07-19T00:21:09.274Z,99.90
2023-07-19T00:23:39.749Z,99.90
2023-07-19T00:26:09.965Z,99.90
2023-07-19T00:28:40.142Z,99.90
2023-07-19T00:31:10.269Z,99.90
2023-07-19T00:33:40.670Z,99.90
2023-07-19T00:36:13.585Z,99.90
2023-07-19T00:38:43.779Z,99.90
2023-07-19T00:41:13.950Z,99.90
2023-07-19T00:43:44.414Z,99.90
2023-07-19T00:46:15.062Z,99.90
2023-07-19T00:48:45.825Z,99.90
2023-07-19T00:51:19.777Z,99.90
2023-07-19T00:53:52.717Z,99.90
2023-07-19T00:56:24.461Z,99.90
2023-07-19T00:58:55.537Z,99.90
2023-07-19T01:01:25.897Z,99.90
2023-07-19T01:03:56.485Z,99.90
2023-07-19T01:06:29.020Z,99.90
2023-07-19T01:08:59.271Z,99.90
2023-07-19T01:11:29.504Z,99.90
2023-07-19T01:14:00.044Z,99.90
2023-07-19T01:16:30.282Z,99.90
2023-07-19T01:19:00.588Z,99.90
2023-07-19T01:21:33.864Z,99.90
2023-07-19T01:24:07.779Z,99.90
2023-07-19T01:26:38.008Z,99.90
2023-07-19T01:29:08.459Z,99.90
2023-07-19T01:31:38.745Z,99.90
2023-07-19T01:34:09.297Z,99.90
2023-07-19T01:36:39.519Z,99.90
2023-07-19T01:39:12.376Z,99.90
2023-07-19T01:41:42.549Z,99.90
2023-07-19T01:44:12.813Z,99.90
2023-07-19T01:46:43.069Z,99.90
2023-07-19T01:49:13.373Z,99.90
2023-07-19T01:51:43.511Z,99.90
2023-07-19T01:54:16.304Z,99.90
2023-07-19T01:56:46.465Z,99.90
2023-07-19T01:59:16.672Z,99.90
2023-07-19T02:01:47.357Z,99.90
2023-07-19T02:04:17.613Z,99.90
2023-07-19T02:06:47.872Z,99.90
2023-07-19T02:09:20.917Z,99.90
2023-07-19T02:11:51.358Z,99.90
2023-07-19T02:14:22.758Z,99.90
2023-07-19T02:16:52.954Z,99.90
2023-07-19T02:19:23.183Z,99.90
2023-07-19T02:21:53.367Z,99.90
2023-07-19T02:24:26.217Z,99.90
2023-07-19T02:26:56.416Z,99.90
2023-07-19T02:29:27.298Z,99.90
2023-07-19T02:31:57.552Z,99.90
2023-07-19T02:34:27.934Z,99.90
2023-07-19T02:36:58.642Z,99.90
2023-07-19T02:39:31.707Z,99.90
2023-07-19T02:42:01.937Z,99.90
2023-07-19T02:44:32.186Z,99.90
2023-07-19T02:47:02.380Z,99.90
2023-07-19T02:49:32.664Z,99.90
2023-07-19T02:52:02.860Z,99.90
2023-07-19T02:54:35.639Z,99.90
2023-07-19T02:57:05.871Z,99.90
2023-07-19T02:59:36.148Z,99.90
2023-07-19T03:02:06.444Z,99.90
2023-07-19T03:04:36.768Z,99.90
2023-07-19T03:07:07.124Z,99.90
2023-07-19T03:09:39.942Z,99.90
2023-07-19T03:12:11.593Z,99.90
2023-07-19T03:14:41.949Z,99.90
2023-07-19T03:17:14.704Z,99.90
2023-07-19T03:19:45.072Z,99.90
2023-07-19T03:22:15.292Z,99.90
2023-07-19T03:24:48.299Z,99.90
2023-07-19T03:27:18.565Z,99.90
2023-07-19T03:32:18.997Z,99.90
2023-07-19T03:34:49.361Z,99.90
2023-07-19T03:37:19.571Z,99.90
2023-07-19T03:39:52.526Z,99.90
2023-07-19T03:42:22.736Z,99.90
2023-07-19T03:47:23.448Z,99.90
2023-07-19T03:49:54.022Z,99.90
2023-07-19T03:52:23.932Z,99.90
2023-07-19T03:55:00.414Z,99.90
2023-07-19T03:57:30.600Z,99.90
2023-07-19T04:00:00.848Z,99.90
2023-07-19T04:02:31.043Z,99.90
2023-07-19T04:05:01.349Z,99.90
2023-07-19T04:07:31.569Z,99.90
2023-07-19T04:10:04.594Z,99.90
2023-07-19T04:12:34.783Z,99.90
2023-07-19T04:15:05.154Z,99.90
2023-07-19T04:17:35.400Z,99.90
2023-07-19T04:20:05.976Z,99.90
2023-07-19T04:22:35.892Z,99.90
2023-07-19T04:25:09.831Z,99.90
2023-07-19T04:27:40.045Z,99.90
2023-07-19T04:30:11.725Z,99.90
2023-07-19T04:32:41.956Z,99.90
2023-07-19T04:35:13.122Z,99.90
2023-07-19T04:37:43.253Z,99.90
2023-07-19T04:40:16.250Z,99.90
2023-07-19T04:42:46.548Z,99.90
2023-07-19T04:45:17.505Z,99.90
2023-07-19T04:47:47.684Z,99.90
2023-07-19T04:50:18.142Z,99.90
2023-07-19T04:52:48.518Z,99.90
2023-07-19T04:55:21.577Z,99.90
2023-07-19T04:57:51.781Z,99.90
2023-07-19T05:00:22.433Z,99.90
2023-07-19T05:02:52.614Z,99.90
2023-07-19T05:05:23.713Z,99.90
2023-07-19T05:07:53.946Z,99.90
2023-07-19T05:10:26.764Z,99.90
2023-07-19T05:12:56.905Z,99.90
2023-07-19T05:15:27.144Z,99.90
2023-07-19T05:17:57.420Z,99.90
2023-07-19T05:20:27.744Z,99.90
2023-07-19T05:22:57.913Z,99.90
2023-07-19T05:25:31.042Z,99.90
2023-07-19T05:28:01.512Z,99.90
2023-07-19T05:30:31.839Z,99.90
2023-07-19T05:33:02.399Z,99.90
2023-07-19T05:35:34.551Z,99.90
2023-07-19T05:38:04.765Z,99.90
2023-07-19T05:40:37.717Z,99.90
2023-07-19T05:43:07.906Z,99.90
2023-07-19T05:45:38.288Z,99.90
2023-07-19T05:48:08.934Z,99.90
2023-07-19T05:50:39.833Z,99.90
2023-07-19T05:53:10.052Z,99.90
2023-07-19T05:55:43.365Z,99.90
2023-07-19T05:58:13.584Z,99.90
2023-07-19T06:00:44.230Z,99.90
2023-07-19T06:03:16.284Z,99.90
2023-07-19T06:05:47.326Z,99.90
2023-07-19T06:08:24.474Z,99.90
2023-07-19T06:10:58.074Z,99.90
2023-07-19T06:13:28.326Z,99.90
2023-07-19T06:15:58.865Z,99.90
2023-07-19T06:18:29.007Z,99.90
2023-07-19T06:20:59.244Z,99.90
2023-07-19T06:23:29.667Z,99.90
2023-07-19T06:26:05.887Z,99.90
2023-07-19T06:28:36.722Z,99.90
2023-07-19T06:31:07.084Z,99.90
2023-07-19T06:33:37.362Z,99.90
2023-07-19T06:36:08.153Z,99.90
2023-07-19T06:38:38.868Z,99.90
2023-07-19T06:41:11.709Z,99.90
2023-07-19T06:43:41.901Z,99.90
2023-07-19T06:46:12.099Z,99.90
2023-07-19T06:48:42.637Z,99.90
2023-07-19T06:51:12.655Z,99.90
2023-07-19T06:53:42.833Z,99.90
2023-07-19T06:56:15.668Z,99.90
2023-07-19T06:58:45.838Z,99.90
2023-07-19T07:01:16.218Z,99.90
2023-07-19T07:03:46.464Z,99.90
2023-07-19T07:06:16.806Z,99.90
2023-07-19T07:08:46.878Z,99.90
2023-07-19T07:11:19.839Z,99.90
2023-07-19T07:13:50.167Z,99.90
2023-07-19T07:16:20.675Z,99.90
2023-07-19T07:18:50.608Z,99.90
2023-07-19T07:21:21.180Z,99.90
2023-07-19T07:23:51.536Z,99.90
2023-07-19T07:26:24.365Z,99.90
2023-07-19T07:28:54.568Z,99.90
2023-07-19T07:31:24.970Z,99.90
2023-07-19T07:33:55.619Z,99.90
2023-07-19T07:36:25.830Z,99.90
2023-07-19T07:38:56.076Z,99.90
2023-07-19T07:41:28.999Z,99.90
2023-07-19T07:43:59.193Z,99.90
2023-07-19T07:46:30.583Z,99.90
2023-07-19T07:49:01.218Z,99.90
2023-07-19T07:51:32.072Z,99.70
2023-07-19T07:54:02.239Z,98.70
2023-07-19T07:56:35.096Z,97.90
2023-07-19T07:59:05.271Z,95.70
2023-07-19T08:01:35.544Z,95.70
2023-07-19T08:04:10.239Z,95.10
2023-07-19T08:06:40.610Z,95.10
2023-07-19T08:09:10.841Z,93.80
2023-07-19T08:11:43.776Z,92.00
2023-07-19T08:14:13.950Z,91.40
2023-07-19T08:16:44.166Z,91.50
2023-07-19T08:19:14.747Z,91.20
2023-07-19T08:21:44.936Z,90.30
2023-07-19T08:24:15.484Z,87.50
2023-07-19T08:26:48.239Z,83.20
2023-07-19T08:29:18.740Z,80.80
2023-07-19T08:31:48.960Z,78.80
2023-07-19T08:34:19.197Z,76.10
2023-07-19T08:36:49.191Z,73.70
2023-07-19T08:39:19.369Z,73.20
2023-07-19T08:41:52.469Z,74.20
2023-07-19T08:44:23.712Z,75.70
2023-07-19T08:46:54.699Z,76.10
2023-07-19T08:49:25.780Z,76.90
2023-07-19T08:51:57.546Z,75.70
2023-07-19T08:54:27.717Z,72.00
2023-07-19T08:57:00.557Z,69.50
2023-07-19T08:59:30.800Z,70.10
2023-07-19T09:02:00.826Z,69.60
2023-07-19T09:04:31.008Z,70.00
2023-07-19T09:07:01.078Z,68.10
2023-07-19T09:09:31.263Z,66.90
2023-07-19T09:12:03.818Z,66.20
2023-07-19T09:14:40.949Z,65.60
2023-07-19T09:17:11.179Z,68.50
2023-07-19T09:19:41.365Z,71.20
2023-07-19T09:22:12.029Z,74.50
2023-07-19T09:24:57.151Z,74.10
2023-07-19T09:27:33.568Z,73.70
2023-07-19T09:30:04.814Z,70.70
2023-07-19T09:32:36.192Z,70.30
2023-07-19T09:35:08.977Z,69.30
2023-07-19T09:37:39.494Z,68.50
2023-07-19T09:40:10.812Z,70.10
2023-07-19T09:42:44.097Z,69.00
2023-07-19T09:45:15.743Z,70.30
2023-07-19T09:47:46.850Z,73.00
2023-07-19T09:50:17.928Z,74.60
2023-07-19T09:52:51.146Z,74.60
2023-07-19T09:55:23.723Z,74.90
2023-07-19T09:57:57.601Z,74.50
2023-07-19T10:00:28.447Z,76.00
2023-07-19T10:05:32.687Z,92.40
2023-07-19T10:08:07.941Z,98.80
2023-07-19T10:10:42.043Z,99.90
2023-07-19T10:13:15.700Z,99.90
2023-07-19T10:15:54.938Z,99.90
2023-07-19T10:18:25.954Z,99.90
2023-07-19T10:21:07.157Z,99.90
2023-07-19T10:23:37.537Z,99.90
2023-07-19T10:26:10.516Z,99.90
2023-07-19T10:28:43.527Z,99.90
2023-07-19T10:31:28.356Z,97.00
2023-07-19T10:34:00.035Z,97.20
2023-07-19T10:36:30.264Z,95.80
2023-07-19T10:39:00.470Z,94.10
2023-07-19T10:41:30.648Z,95.20
2023-07-19T10:44:06.595Z,97.90
2023-07-19T10:46:37.182Z,99.10
2023-07-19T10:49:10.521Z,99.90
2023-07-19T10:51:40.818Z,99.90
2023-07-19T10:54:11.154Z,99.90
2023-07-19T10:56:41.354Z,99.90
2023-07-19T10:59:16.574Z,99.90
2023-07-19T11:01:47.241Z,99.90
2023-07-19T11:04:20.050Z,99.90
2023-07-19T11:07:04.203Z,99.90
2023-07-19T11:09:34.678Z,99.90
2023-07-19T11:12:04.710Z,99.90
2023-07-19T11:14:38.448Z,99.90
2023-07-19T11:17:09.434Z,97.90
2023-07-19T11:19:41.935Z,95.80
2023-07-19T11:22:13.238Z,94.70
2023-07-19T11:24:45.355Z,94.70
2023-07-19T11:27:16.188Z,95.80
2023-07-19T11:29:53.503Z,97.70
2023-07-19T11:32:25.495Z,98.10
2023-07-19T11:34:57.620Z,99.40
2023-07-19T11:37:31.540Z,99.90
2023-07-19T11:40:03.848Z,99.80
2023-07-19T11:42:48.759Z,99.90
2023-07-19T11:45:24.754Z,97.90
2023-07-19T11:47:58.356Z,97.20
2023-07-19T11:50:29.208Z,97.00
2023-07-19T11:53:01.680Z,96.00
2023-07-19T11:55:32.656Z,97.00
2023-07-19T11:58:05.082Z,97.20
2023-07-19T12:00:38.213Z,97.60
2023-07-19T12:03:08.612Z,96.50
2023-07-19T12:05:38.946Z,94.10
2023-07-19T12:08:10.082Z,93.60
2023-07-19T12:10:41.077Z,93.30
2023-07-19T12:13:11.464Z,93.80
2023-07-19T12:15:44.311Z,94.10
2023-07-19T12:18:14.633Z,95.00
2023-07-19T12:20:45.278Z,94.70
2023-07-19T12:23:15.589Z,94.40
2023-07-19T12:25:45.890Z,94.30
2023-07-19T12:28:16.061Z,93.00
2023-07-19T12:30:49.165Z,92.50
2023-07-19T12:33:19.421Z,91.70
2023-07-19T12:35:51.120Z,91.80
2023-07-19T12:38:21.367Z,90.00
2023-07-19T12:40:51.744Z,90.70
2023-07-19T12:43:22.035Z,90.20
2023-07-19T12:45:56.259Z,90.60
2023-07-19T12:48:26.688Z,90.60
2023-07-19T12:50:56.988Z,91.70
2023-07-19T12:53:28.507Z,91.90
2023-07-19T12:55:58.861Z,91.90
2023-07-19T12:58:28.868Z,91.10
2023-07-19T13:01:01.680Z,90.70
2023-07-19T13:03:32.060Z,90.40
2023-07-19T13:06:02.325Z,89.00
2023-07-19T13:08:32.478Z,89.80
2023-07-19T13:11:02.939Z,89.10
2023-07-19T13:13:33.162Z,88.70
2023-07-19T13:16:06.098Z,89.20
2023-07-19T13:18:36.419Z,89.10
2023-07-19T13:21:06.752Z,87.60
2023-07-19T13:23:36.941Z,83.80
2023-07-19T13:26:07.225Z,84.80
2023-07-19T13:28:37.373Z,86.30
2023-07-19T13:31:10.276Z,87.30
2023-07-19T13:33:40.585Z,88.70
2023-07-19T13:38:43.882Z,90.00
2023-07-19T13:41:13.804Z,90.10
2023-07-19T13:43:45.172Z,90.80
2023-07-19T13:46:18.209Z,91.20
2023-07-19T13:48:48.569Z,92.00
2023-07-19T13:51:19.050Z,93.00
2023-07-19T13:53:50.425Z,93.70
2023-07-19T13:56:20.807Z,94.10
2023-07-19T13:58:51.207Z,94.60
2023-07-19T14:01:24.698Z,94.20
2023-07-19T14:03:56.548Z,93.90
2023-07-19T14:06:27.119Z,93.50
2023-07-19T14:08:57.484Z,94.10
2023-07-19T14:11:28.058Z,95.10
2023-07-19T14:13:58.278Z,94.70
2023-07-19T14:16:35.032Z,93.90
2023-07-19T14:19:05.608Z,93.90
2023-07-19T14:21:35.953Z,94.30
2023-07-19T14:24:05.875Z,95.10
2023-07-19T14:26:36.240Z,95.60
2023-07-19T14:29:06.281Z,95.40
2023-07-19T14:31:39.397Z,95.40
2023-07-19T14:34:09.594Z,94.40
2023-07-19T14:36:39.826Z,93.40
2023-07-19T14:39:10.096Z,92.90
2023-07-19T14:41:40.575Z,93.10
2023-07-19T14:44:10.885Z,93.60
2023-07-19T14:46:43.806Z,93.10
2023-07-19T14:49:14.117Z,93.10
2023-07-19T14:51:44.443Z,93.20
2023-07-19T14:54:15.026Z,92.90
2023-07-19T14:56:46.495Z,93.10
2023-07-19T14:59:18.535Z,93.20
2023-07-19T15:01:52.286Z,93.10
2023-07-19T15:04:22.639Z,93.30
2023-07-19T15:06:54.013Z,93.10
2023-07-19T15:09:25.229Z,93.00
2023-07-19T15:11:56.009Z,93.10
2023-07-19T15:17:00.498Z,93.40
2023-07-19T15:19:30.919Z,93.70
2023-07-19T15:22:04.063Z,93.60
2023-07-19T15:24:34.280Z,92.90
2023-07-19T15:27:04.501Z,92.50
2023-07-19T15:29:35.081Z,91.90
2023-07-19T15:32:08.472Z,91.20
2023-07-19T15:34:38.655Z,90.30
2023-07-19T15:37:09.334Z,90.20
2023-07-19T15:39:39.572Z,90.50
2023-07-19T15:42:10.887Z,91.10
2023-07-19T15:44:42.095Z,91.80
2023-07-19T15:47:14.934Z,93.00
2023-07-19T15:49:45.176Z,94.00
2023-07-19T15:52:15.556Z,96.30
2023-07-19T15:54:45.842Z,96.60
2023-07-19T15:57:16.100Z,96.60
2023-07-19T15:59:46.365Z,96.60
2023-07-19T16:02:20.812Z,96.80
2023-07-19T16:04:51.045Z,96.40
2023-07-19T16:07:21.339Z,95.50
2023-07-19T16:09:51.875Z,95.80
2023-07-19T16:12:22.423Z,95.50
2023-07-19T16:14:52.650Z,95.50
2023-07-19T16:17:25.554Z,95.10
2023-07-19T16:19:57.416Z,95.10
2023-07-19T16:22:27.951Z,94.60
2023-07-19T16:24:58.130Z,94.10
2023-07-19T16:27:28.436Z,93.10
2023-07-19T16:29:58.994Z,92.10
2023-07-19T16:32:32.120Z,92.60
2023-07-19T16:35:02.338Z,92.30
2023-07-19T16:37:32.706Z,92.60
2023-07-19T16:40:03.089Z,92.50
2023-07-19T16:42:33.334Z,93.20
2023-07-19T16:45:03.558Z,95.10
2023-07-19T16:47:36.642Z,96.80
2023-07-19T16:50:11.355Z,98.20
2023-07-19T16:52:44.109Z,98.70
2023-07-19T16:55:15.121Z,98.90
2023-07-19T16:57:45.323Z,98.60
2023-07-19T17:00:18.010Z,98.20
2023-07-19T17:02:52.668Z,98.20
2023-07-19T17:05:22.923Z,98.10
2023-07-19T17:07:53.801Z,97.80
2023-07-19T17:10:24.099Z,97.60
2023-07-19T17:12:54.466Z,97.80
2023-07-19T17:15:24.354Z,97.60
2023-07-19T17:17:59.818Z,97.70
2023-07-19T17:20:30.586Z,98.10
2023-07-19T17:23:01.082Z,98.60
2023-07-19T17:25:31.298Z,98.90
2023-07-19T17:28:01.559Z,99.50
2023-07-19T17:30:31.833Z,99.90
2023-07-19T17:33:04.714Z,99.90
2023-07-19T17:35:34.934Z,99.50
2023-07-19T17:38:05.252Z,99.20
2023-07-19T17:40:35.528Z,99.50
2023-07-19T17:43:05.858Z,99.90
2023-07-19T17:45:36.060Z,99.90
2023-07-19T17:48:09.387Z,99.70
2023-07-19T17:50:40.058Z,99.60
2023-07-19T17:53:10.270Z,99.90
2023-07-19T17:55:40.557Z,99.90
2023-07-19T17:58:10.993Z,99.90
2023-07-19T18:00:40.915Z,99.90
2023-07-19T18:03:14.315Z,99.90
2023-07-19T18:05:44.608Z,99.90
2023-07-19T18:08:23.234Z,99.90
2023-07-19T18:10:55.128Z,99.90
2023-07-19T18:13:25.068Z,99.90
2023-07-19T18:15:55.281Z,99.90
2023-07-19T18:18:28.264Z,99.90
2023-07-19T18:20:58.770Z,99.90
2023-07-19T18:23:29.460Z,99.90
2023-07-19T18:25:59.649Z,99.90
2023-07-19T18:28:29.890Z,99.90
2023-07-19T18:31:00.261Z,99.90
2023-07-19T18:33:33.180Z,99.90
2023-07-19T18:36:03.350Z,99.90
2023-07-19T18:38:33.675Z,99.90
2023-07-19T18:41:03.929Z,99.90
2023-07-19T18:43:34.377Z,99.90
2023-07-19T18:46:04.409Z,99.90
2023-07-19T18:48:37.434Z,99.90
2023-07-19T18:51:07.610Z,99.90
2023-07-19T18:53:38.019Z,99.90
2023-07-19T18:56:08.487Z,99.90
2023-07-19T18:58:38.445Z,99.90
2023-07-19T19:01:08.778Z,99.90
2023-07-19T19:03:41.778Z,99.90
2023-07-19T19:06:12.037Z,99.90
2023-07-19T19:08:42.397Z,99.90
2023-07-19T19:11:12.555Z,99.90
2023-07-19T19:13:42.805Z,99.90
2023-07-19T19:16:13.077Z,99.90
2023-07-19T19:18:46.173Z,99.90
2023-07-19T19:21:16.417Z,99.90
2023-07-19T19:23:46.864Z,99.90
2023-07-19T19:26:16.888Z,99.90
2023-07-19T19:28:47.160Z,99.90
2023-07-19T19:31:17.461Z,99.90
2023-07-19T19:33:50.313Z,99.90
2023-07-19T19:36:20.502Z,99.90
2023-07-19T19:38:50.774Z,99.90
2023-07-19T19:41:21.426Z,99.90
2023-07-19T19:43:52.596Z,99.90
2023-07-19T19:46:22.784Z,99.90
2023-07-19T19:48:55.677Z,99.90
2023-07-19T19:51:25.895Z,99.90
2023-07-19T19:53:56.101Z,99.90
2023-07-19T19:56:31.788Z,99.90
2023-07-19T19:59:02.500Z,99.90
2023-07-19T20:01:35.247Z,99.90
2023-07-19T20:04:08.333Z,99.90
2023-07-19T20:06:38.604Z,99.90
2023-07-19T20:09:12.859Z,99.90
2023-07-19T20:11:47.013Z,99.90
2023-07-19T20:14:17.795Z,99.90
2023-07-19T20:16:51.527Z,99.90
2023-07-19T20:21:59.541Z,99.90
2023-07-19T20:24:33.386Z,99.90
2023-07-19T20:27:13.632Z,99.90
2023-07-19T20:39:59.281Z,99.90
2023-07-19T20:42:29.617Z,99.90
2023-07-19T20:45:00.160Z,99.90
2023-07-19T20:47:30.127Z,99.90
2023-07-19T20:50:04.223Z,99.90
2023-07-19T20:52:35.849Z,99.90
2023-07-19T20:55:06.416Z,99.90
2023-07-19T20:57:36.594Z,99.90
2023-07-19T21:00:07.415Z,99.90
2023-07-19T21:02:37.908Z,99.90
2023-07-19T21:05:11.516Z,99.90
2023-07-19T21:07:42.108Z,99.90
2023-07-19T21:10:12.741Z,99.90
2023-07-19T21:12:43.018Z,99.90
2023-07-19T21:15:15.166Z,99.90
2023-07-19T21:17:45.379Z,99.90
2023-07-19T21:20:18.930Z,99.90
2023-07-19T21:22:49.191Z,99.90
2023-07-19T21:25:18.414Z,99.90
2023-07-19T21:27:48.740Z,99.90
2023-07-19T21:30:19.136Z,99.90
2023-07-19T21:32:49.446Z,99.90
2023-07-19T21:35:22.487Z,99.90
2023-07-19T21:37:52.684Z,99.90
2023-07-19T21:40:22.827Z,99.90
2023-07-19T21:42:53.030Z,99.90
2023-07-19T21:45:23.278Z,99.90
2023-07-19T21:47:53.577Z,99.90
2023-07-19T21:50:27.131Z,99.90
2023-07-19T21:52:57.388Z,99.90
2023-07-19T21:55:27.604Z,99.90
2023-07-19T21:57:57.803Z,99.90
2023-07-19T22:00:43.601Z,99.90
2023-07-19T22:03:14.119Z,99.90
2023-07-19T22:05:47.280Z,99.90
2023-07-19T22:08:18.130Z,99.90
2023-07-19T22:10:48.374Z,99.90
2023-07-19T22:13:18.876Z,99.90
2023-07-19T22:15:49.284Z,99.90
2023-07-19T22:18:26.351Z,99.90
2023-07-19T22:21:15.606Z,99.90
2023-07-19T22:23:50.467Z,99.90
2023-07-19T22:26:21.118Z,99.90
2023-07-19T22:28:54.043Z,99.90
2023-07-19T22:31:25.049Z,99.90
2023-07-19T22:33:55.443Z,99.90
2023-07-19T22:36:28.812Z,99.90
2023-07-19T22:38:59.050Z,99.90
2023-07-19T22:41:29.250Z,99.90
2023-07-19T22:43:59.498Z,99.90
2023-07-19T22:46:31.403Z,99.90
2023-07-19T22:49:01.667Z,99.90
2023-07-19T22:51:34.825Z,99.90
2023-07-19T22:54:05.176Z,99.90
2023-07-19T22:56:35.479Z,99.90
2023-07-19T22:59:05.756Z,99.90
2023-07-19T23:01:36.068Z,99.90
2023-07-19T23:04:06.798Z,99.90
2023-07-19T23:06:41.002Z,99.90
2023-07-19T23:09:11.311Z,99.90
2023-07-19T23:11:42.367Z,99.90
2023-07-19T23:14:12.561Z,99.90
2023-07-19T23:16:44.830Z,99.90
2023-07-19T23:19:15.185Z,99.90
2023-07-19T23:21:47.920Z,99.90
2023-07-19T23:24:18.126Z,99.90
2023-07-19T23:26:48.278Z,99.90
2023-07-19T23:29:23.498Z,99.90
2023-07-19T23:31:54.694Z,99.90
2023-07-19T23:34:24.933Z,99.90
2023-07-19T23:36:58.252Z,99.90
2023-07-19T23:39:29.644Z,99.90
2023-07-19T23:41:59.786Z,99.90
2023-07-19T23:44:29.933Z,99.90
2023-07-19T23:47:00.096Z,99.90
2023-07-19T23:49:31.834Z,99.90
2023-07-19T23:52:04.592Z,99.90
2023-07-19T23:54:35.268Z,99.90
2023-07-19T23:57:05.398Z,99.90
2023-07-19T23:59:35.775Z,99.90
